Time;durP1;ratioP1;P1;durP2;ratioP2;P2;SDS_P1;SDS_P2;PMS_P1;PMS_P2;Temp;Humidity;BMP_temperature;BMP_pressure;BME280_temperature;BME280_humidity;BME280_pressure;Samples;Min_cycle;Max_cycle;Signal;HPM_P1;HPM_P2
2022/04/25 00:00:52;;;;;;;;;;;12.50;99.90;;;;;;5073637;28;19904;-79
2022/04/25 00:03:18;;;;;;;;;;;12.30;99.90;;;;;;5073388;28;19951;-80
2022/04/25 00:05:44;;;;;;;;;;;12.70;99.90;;;;;;5073269;28;20347;-80
2022/04/25 00:08:09;;;;;;;;;;;12.60;99.90;;;;;;5073129;28;19912;-79
2022/04/25 00:10:35;;;;;;;;;;;12.60;99.90;;;;;;5055142;28;19957;-78
2022/04/25 00:13:00;;;;;;;;;;;12.30;99.90;;;;;;5055136;28;20284;-81
2022/04/25 00:15:27;;;;;;;;;;;12.10;99.90;;;;;;5055014;28;19908;-81
2022/04/25 00:17:53;;;;;;;;;;;12.00;99.90;;;;;;5055077;28;20364;-80
2022/04/25 00:20:18;;;;;;;;;;;12.10;99.90;;;;;;5073049;28;19991;-79
2022/04/25 00:22:46;;;;;;;;;;;12.30;99.90;;;;;;5055016;28;19961;-79
2022/04/25 00:25:12;;;;;;;;;;;12.40;99.90;;;;;;5072981;28;19904;-80
2022/04/25 00:27:38;;;;;;;;;;;12.40;99.90;;;;;;5073162;28;20384;-80
2022/04/25 00:30:04;;;;;;;;;;;12.40;99.90;;;;;;5072961;28;19954;-79
2022/04/25 00:32:29;;;;;;;;;;;12.50;99.90;;;;;;5074508;28;20339;-78
2022/04/25 00:34:55;;;;;;;;;;;12.30;99.90;;;;;;5076425;28;20004;-77
2022/04/25 00:37:20;;;;;;;;;;;12.10;99.90;;;;;;5076256;28;19913;-79
2022/04/25 00:39:46;;;;;;;;;;;11.80;99.90;;;;;;5076472;28;19914;-80
2022/04/25 00:42:12;;;;;;;;;;;11.90;99.90;;;;;;5076376;28;20279;-80
2022/04/25 00:44:37;;;;;;;;;;;12.00;99.90;;;;;;5076339;28;19905;-79
2022/04/25 00:47:03;;;;;;;;;;;12.10;99.90;;;;;;5076304;28;19905;-79
2022/04/25 00:49:29;;;;;;;;;;;12.20;99.90;;;;;;5076216;28;19928;-79
2022/04/25 00:51:54;;;;;;;;;;;12.40;99.90;;;;;;5058179;28;19904;-80
2022/04/25 00:54:20;;;;;;;;;;;12.50;99.90;;;;;;5058093;28;19945;-79
2022/04/25 00:56:48;;;;;;;;;;;12.60;99.90;;;;;;5076095;28;19911;-80
2022/04/25 00:59:17;;;;;;;;;;;12.50;99.90;;;;;;5076231;28;19904;-79
2022/04/25 01:01:43;;;;;;;;;;;12.50;99.90;;;;;;5076166;28;20388;-80
2022/04/25 01:04:09;;;;;;;;;;;12.60;99.90;;;;;;5058029;28;20317;-79
2022/04/25 01:06:34;;;;;;;;;;;12.50;99.90;;;;;;5075979;28;19943;-79
2022/04/25 01:09:00;;;;;;;;;;;12.60;99.90;;;;;;5075932;28;20306;-79
2022/04/25 01:11:25;;;;;;;;;;;12.50;99.90;;;;;;5075980;28;19908;-80
2022/04/25 01:13:51;;;;;;;;;;;12.50;99.90;;;;;;5075850;28;19962;-80
2022/04/25 01:16:17;;;;;;;;;;;12.60;99.90;;;;;;5075867;28;19908;-80
2022/04/25 01:18:42;;;;;;;;;;;12.60;99.90;;;;;;5057724;28;19904;-79
2022/04/25 01:21:12;;;;;;;;;;;12.80;99.90;;;;;;5075703;28;19905;-80
2022/04/25 01:29:10;;;;;;;;;;;12.60;99.90;;;;;;5075269;28;19911;-80
2022/04/25 01:31:36;;;;;;;;;;;12.70;99.90;;;;;;5075852;28;19954;-80
2022/04/25 01:34:01;;;;;;;;;;;12.70;99.90;;;;;;5075508;28;20323;-80
2022/04/25 01:36:27;;;;;;;;;;;12.70;99.90;;;;;;5075225;28;19917;-80
2022/04/25 01:38:53;;;;;;;;;;;12.60;99.90;;;;;;5075342;28;20280;-79
2022/04/25 01:41:18;;;;;;;;;;;12.70;99.90;;;;;;5075485;28;19911;-80
2022/04/25 01:43:44;;;;;;;;;;;12.70;99.90;;;;;;5074485;28;20272;-79
2022/04/25 01:46:10;;;;;;;;;;;12.60;99.90;;;;;;5075183;28;19912;-80
2022/04/25 01:48:36;;;;;;;;;;;12.60;99.90;;;;;;5075341;28;19911;-80
2022/04/25 01:51:01;;;;;;;;;;;12.50;99.90;;;;;;5075085;28;19904;-80
2022/04/25 01:53:27;;;;;;;;;;;12.50;99.90;;;;;;5074903;28;19916;-79
2022/04/25 01:55:53;;;;;;;;;;;12.50;99.90;;;;;;5074921;28;19950;-80
2022/04/25 01:58:19;;;;;;;;;;;12.40;99.90;;;;;;5074948;28;19904;-80
2022/04/25 02:00:45;;;;;;;;;;;12.20;99.90;;;;;;5074877;28;19966;-78
2022/04/25 02:03:11;;;;;;;;;;;12.30;99.90;;;;;;5074802;28;19979;-80
2022/04/25 02:05:37;;;;;;;;;;;12.40;99.90;;;;;;5074976;28;19940;-80
2022/04/25 02:08:02;;;;;;;;;;;12.40;99.90;;;;;;5056784;28;19905;-79
2022/04/25 02:10:28;;;;;;;;;;;12.40;99.90;;;;;;5074771;28;19934;-79
2022/04/25 02:12:54;;;;;;;;;;;12.50;99.90;;;;;;5074620;28;19912;-81
2022/04/25 02:15:21;;;;;;;;;;;12.50;99.90;;;;;;5074505;28;19916;-80
2022/04/25 02:17:46;;;;;;;;;;;12.70;99.90;;;;;;5056564;28;19904;-80
2022/04/25 02:20:12;;;;;;;;;;;12.70;99.90;;;;;;5074802;28;20391;-79
2022/04/25 02:22:38;;;;;;;;;;;12.80;99.90;;;;;;5074410;28;19904;-79
2022/04/25 02:25:04;;;;;;;;;;;12.80;99.90;;;;;;5074414;28;19911;-80
2022/04/25 02:27:30;;;;;;;;;;;12.70;99.90;;;;;;5074353;28;19999;-79
2022/04/25 02:29:58;;;;;;;;;;;12.70;99.90;;;;;;5056366;28;19908;-80
2022/04/25 02:32:24;;;;;;;;;;;12.70;99.90;;;;;;5074277;28;19904;-78
2022/04/25 02:34:50;;;;;;;;;;;12.60;99.90;;;;;;5074347;28;19915;-81
2022/04/25 02:37:17;;;;;;;;;;;12.50;99.90;;;;;;5073996;28;20368;-78
2022/04/25 02:39:42;;;;;;;;;;;12.50;99.90;;;;;;5074321;28;20423;-80
2022/04/25 02:42:08;;;;;;;;;;;12.60;99.90;;;;;;5056106;28;19940;-80
2022/04/25 02:44:34;;;;;;;;;;;12.60;99.90;;;;;;5074060;28;19904;-78
2022/04/25 02:46:59;;;;;;;;;;;12.50;99.90;;;;;;5056011;28;19926;-79
2022/04/25 02:49:25;;;;;;;;;;;12.40;99.90;;;;;;5056043;28;19912;-81
2022/04/25 02:51:50;;;;;;;;;;;12.30;99.90;;;;;;5055983;28;19986;-79
2022/04/25 02:54:16;;;;;;;;;;;12.30;99.90;;;;;;5073868;28;19961;-78
2022/04/25 02:56:41;;;;;;;;;;;12.30;99.90;;;;;;5073707;28;19905;-80
2022/04/25 02:59:07;;;;;;;;;;;12.00;99.90;;;;;;5073927;28;19908;-79
2022/04/25 03:01:33;;;;;;;;;;;12.10;99.90;;;;;;5073876;28;19910;-79
2022/04/25 03:03:58;;;;;;;;;;;12.20;99.90;;;;;;5074078;28;19905;-79
2022/04/25 03:06:24;;;;;;;;;;;12.30;99.90;;;;;;5073775;28;20288;-80
2022/04/25 03:08:50;;;;;;;;;;;12.30;99.90;;;;;;5073774;28;20260;-79
2022/04/25 03:11:15;;;;;;;;;;;12.30;99.90;;;;;;5073696;28;20390;-80
2022/04/25 03:13:41;;;;;;;;;;;12.20;99.90;;;;;;5073844;28;19908;-80
2022/04/25 03:16:07;;;;;;;;;;;12.30;99.90;;;;;;5073960;28;19908;-80
2022/04/25 03:18:33;;;;;;;;;;;12.20;99.90;;;;;;5073658;28;19904;-79
2022/04/25 03:20:59;;;;;;;;;;;12.10;99.90;;;;;;5073707;28;20419;-80
2022/04/25 03:23:25;;;;;;;;;;;12.10;99.90;;;;;;5055594;28;20424;-80
2022/04/25 03:25:51;;;;;;;;;;;11.90;99.90;;;;;;5073504;28;19951;-79
2022/04/25 03:28:17;;;;;;;;;;;11.90;99.90;;;;;;5073791;28;19905;-81
2022/04/25 03:30:42;;;;;;;;;;;11.80;99.90;;;;;;5073892;28;19962;-80
2022/04/25 03:33:11;;;;;;;;;;;11.40;99.90;;;;;;5073537;28;19904;-80
2022/04/25 03:35:37;;;;;;;;;;;11.20;99.90;;;;;;5073463;28;19970;-80
2022/04/25 03:38:02;;;;;;;;;;;11.20;99.90;;;;;;5073038;28;19954;-78
2022/04/25 03:40:28;;;;;;;;;;;11.00;99.90;;;;;;5073440;28;19981;-79
2022/04/25 03:42:57;;;;;;;;;;;11.00;99.90;;;;;;5073447;28;19912;-79
2022/04/25 03:45:22;;;;;;;;;;;10.90;99.90;;;;;;5073441;28;19905;-79
2022/04/25 03:47:48;;;;;;;;;;;10.80;99.90;;;;;;5073348;28;20368;-80
2022/04/25 03:50:14;;;;;;;;;;;10.90;99.90;;;;;;5073385;28;19906;-80
2022/04/25 03:52:42;;;;;;;;;;;10.80;99.90;;;;;;5073465;28;19904;-78
2022/04/25 03:57:53;;;;;;;;;;;11.20;99.90;;;;;;5073000;28;19966;-79
2022/04/25 04:00:19;;;;;;;;;;;11.20;99.90;;;;;;5073261;28;19904;-79
2022/04/25 04:02:44;;;;;;;;;;;11.30;99.90;;;;;;5073355;28;20344;-80
2022/04/25 04:05:10;;;;;;;;;;;11.10;99.90;;;;;;5073179;28;19905;-79
2022/04/25 04:07:36;;;;;;;;;;;11.00;99.90;;;;;;5074992;28;19905;-79
2022/04/25 04:10:02;;;;;;;;;;;11.00;99.90;;;;;;5076969;28;19905;-79
2022/04/25 04:12:34;;;;;;;;;;;10.90;99.90;;;;;;5077279;28;19908;-80
2022/04/25 04:15:02;;;;;;;;;;;10.80;99.90;;;;;;5076886;28;19912;-80
2022/04/25 04:17:28;;;;;;;;;;;10.60;99.90;;;;;;5058867;28;20284;-80
2022/04/25 04:19:53;;;;;;;;;;;10.70;99.90;;;;;;5076752;28;19904;-80
2022/04/25 04:22:22;;;;;;;;;;;10.70;99.90;;;;;;5077045;28;19904;-80
2022/04/25 04:24:48;;;;;;;;;;;10.70;99.90;;;;;;5076764;28;19915;-79
2022/04/25 04:27:14;;;;;;;;;;;10.90;99.90;;;;;;5076689;28;19904;-79
2022/04/25 04:29:40;;;;;;;;;;;10.80;99.90;;;;;;5076605;28;19939;-80
2022/04/25 04:32:07;;;;;;;;;;;10.70;99.90;;;;;;5076564;28;19950;-79
2022/04/25 04:34:33;;;;;;;;;;;10.60;99.90;;;;;;5076479;28;19909;-78
2022/04/25 04:36:59;;;;;;;;;;;10.50;99.90;;;;;;5076315;28;19912;-80
2022/04/25 04:39:24;;;;;;;;;;;10.50;99.90;;;;;;5076435;28;19905;-80
2022/04/25 04:41:50;;;;;;;;;;;10.40;99.90;;;;;;5076495;28;19904;-80
2022/04/25 04:44:16;;;;;;;;;;;10.30;99.90;;;;;;5076357;28;19911;-80
2022/04/25 04:46:42;;;;;;;;;;;10.40;99.90;;;;;;5076263;28;19905;-79
2022/04/25 04:49:07;;;;;;;;;;;10.40;99.90;;;;;;5076410;28;19915;-80
2022/04/25 04:51:33;;;;;;;;;;;10.50;99.90;;;;;;5076234;28;20356;-79
2022/04/25 04:54:02;;;;;;;;;;;10.40;99.90;;;;;;5076244;28;19970;-80
2022/04/25 04:56:30;;;;;;;;;;;10.20;99.90;;;;;;5076098;28;19909;-79
2022/04/25 04:58:56;;;;;;;;;;;10.30;99.90;;;;;;5076544;28;19908;-80
2022/04/25 05:01:21;;;;;;;;;;;10.10;99.90;;;;;;5076368;28;20433;-79
2022/04/25 05:03:47;;;;;;;;;;;10.30;99.90;;;;;;5075998;28;19915;-79
2022/04/25 05:06:13;;;;;;;;;;;10.40;99.90;;;;;;5076047;28;20280;-79
2022/04/25 05:08:39;;;;;;;;;;;10.30;99.90;;;;;;5057933;28;19998;-79
2022/04/25 05:11:05;;;;;;;;;;;10.20;99.90;;;;;;5075794;28;19989;-79
2022/04/25 05:13:33;;;;;;;;;;;10.10;99.90;;;;;;5075800;28;19904;-80
2022/04/25 05:15:59;;;;;;;;;;;9.80;99.90;;;;;;5075801;28;19911;-80
2022/04/25 05:18:25;;;;;;;;;;;9.40;99.90;;;;;;5075696;28;20412;-80
2022/04/25 05:20:50;;;;;;;;;;;9.20;99.90;;;;;;5075671;28;19915;-79
2022/04/25 05:23:16;;;;;;;;;;;9.20;99.90;;;;;;5075824;28;20365;-79
2022/04/25 05:25:42;;;;;;;;;;;9.50;99.90;;;;;;5075642;28;19946;-80
2022/04/25 05:28:07;;;;;;;;;;;9.50;99.90;;;;;;5075804;28;20295;-79
2022/04/25 05:30:33;;;;;;;;;;;9.70;99.90;;;;;;5075526;28;19950;-79
2022/04/25 05:33:05;;;;;;;;;;;9.80;99.90;;;;;;5075540;28;19905;-80
2022/04/25 05:35:31;;;;;;;;;;;9.70;99.90;;;;;;5075134;28;19908;-80
2022/04/25 05:37:57;;;;;;;;;;;9.60;99.90;;;;;;5074924;28;20423;-79
2022/04/25 05:40:24;;;;;;;;;;;9.50;99.90;;;;;;5075397;28;19904;-80
2022/04/25 05:42:50;;;;;;;;;;;9.50;99.90;;;;;;5075160;28;20410;-79
2022/04/25 05:45:16;;;;;;;;;;;9.80;99.90;;;;;;5075180;28;19904;-79
2022/04/25 05:47:45;;;;;;;;;;;10.00;99.90;;;;;;5075114;28;19916;-80
2022/04/25 05:52:56;;;;;;;;;;;10.70;99.90;;;;;;5075119;28;19911;-80
2022/04/25 05:55:21;;;;;;;;;;;10.60;99.90;;;;;;5074836;28;20062;-80
2022/04/25 05:57:47;;;;;;;;;;;10.70;99.90;;;;;;5074897;28;19958;-80
2022/04/25 06:00:14;;;;;;;;;;;10.70;99.90;;;;;;5074874;28;20069;-80
2022/04/25 06:02:40;;;;;;;;;;;10.90;99.90;;;;;;5056857;28;19911;-80
2022/04/25 06:05:06;;;;;;;;;;;11.20;99.90;;;;;;5056865;28;19911;-80
2022/04/25 06:07:33;;;;;;;;;;;11.30;99.90;;;;;;5074718;28;20387;-80
2022/04/25 06:10:00;;;;;;;;;;;11.40;99.90;;;;;;5074720;28;19904;-80
2022/04/25 06:12:29;;;;;;;;;;;11.50;99.90;;;;;;5074760;28;20267;-79
2022/04/25 06:15:00;;;;;;;;;;;11.50;99.90;;;;;;5074478;28;19912;-78
2022/04/25 06:17:26;;;;;;;;;;;11.70;99.90;;;;;;5075042;28;19966;-80
2022/04/25 06:19:52;;;;;;;;;;;11.80;99.90;;;;;;5074471;28;19931;-78
2022/04/25 06:22:21;;;;;;;;;;;11.70;99.90;;;;;;5074479;28;19915;-81
2022/04/25 06:24:46;;;;;;;;;;;11.70;99.90;;;;;;5056421;28;19961;-79
2022/04/25 06:27:12;;;;;;;;;;;11.80;99.90;;;;;;5074339;28;19905;-79
2022/04/25 06:29:42;;;;;;;;;;;11.90;99.90;;;;;;5055846;28;19953;-79
2022/04/25 06:32:07;;;;;;;;;;;12.20;99.90;;;;;;5074299;28;19955;-81
2022/04/25 06:34:33;;;;;;;;;;;12.50;99.90;;;;;;5074181;28;19958;-80
2022/04/25 06:36:58;;;;;;;;;;;12.60;99.90;;;;;;5074099;28;20312;-80
2022/04/25 06:39:24;;;;;;;;;;;12.70;99.90;;;;;;5056151;28;19911;-79
2022/04/25 06:41:50;;;;;;;;;;;12.90;99.90;;;;;;5074125;28;19911;-80
2022/04/25 06:44:15;;;;;;;;;;;13.00;99.90;;;;;;5074619;28;19904;-80
2022/04/25 06:46:41;;;;;;;;;;;13.20;99.90;;;;;;5074112;28;19904;-80
2022/04/25 06:49:25;;;;;;;;;;;13.60;99.90;;;;;;5056146;28;19908;-78
2022/04/25 06:51:52;;;;;;;;;;;14.40;99.90;;;;;;5074080;28;19911;-79
2022/04/25 06:54:18;;;;;;;;;;;14.90;99.90;;;;;;5055887;28;20380;-79
2022/04/25 06:56:43;;;;;;;;;;;15.30;99.90;;;;;;5073981;28;19912;-80
2022/04/25 06:59:09;;;;;;;;;;;15.50;99.90;;;;;;5055846;28;19912;-79
2022/04/25 07:01:35;;;;;;;;;;;15.60;99.90;;;;;;5055855;28;19991;-81
2022/04/25 07:04:02;;;;;;;;;;;15.30;99.90;;;;;;5073883;28;19939;-81
2022/04/25 07:06:27;;;;;;;;;;;15.50;99.90;;;;;;5073743;28;19916;-80
2022/04/25 07:08:53;;;;;;;;;;;15.40;99.90;;;;;;5073757;28;19908;-80
2022/04/25 07:11:19;;;;;;;;;;;15.80;99.90;;;;;;5073706;28;20304;-81
2022/04/25 07:13:45;;;;;;;;;;;16.00;99.90;;;;;;5073870;28;20368;-80
2022/04/25 07:16:12;;;;;;;;;;;16.10;99.90;;;;;;5073775;28;19911;-80
2022/04/25 07:18:38;;;;;;;;;;;16.60;99.90;;;;;;5073618;28;19915;-79
2022/04/25 07:29:19;;;;;;;;;;;16.90;99.90;;;;;;5073451;28;20399;-81
2022/04/25 07:31:44;;;;;;;;;;;16.50;99.90;;;;;;5073597;28;19904;-79
2022/04/25 07:34:10;;;;;;;;;;;17.00;99.90;;;;;;5073461;28;20368;-80
2022/04/25 07:36:38;;;;;;;;;;;17.70;99.90;;;;;;5073298;28;19965;-81
2022/04/25 07:39:04;;;;;;;;;;;17.60;99.90;;;;;;5073773;28;19912;-79
2022/04/25 07:41:29;;;;;;;;;;;17.30;99.90;;;;;;5073628;28;19904;-81
2022/04/25 07:43:55;;;;;;;;;;;17.40;99.90;;;;;;5077545;28;19911;-80
2022/04/25 07:46:23;;;;;;;;;;;18.10;99.90;;;;;;5077495;28;19963;-80
2022/04/25 07:48:49;;;;;;;;;;;18.20;99.90;;;;;;5059380;28;19909;-81
2022/04/25 07:51:15;;;;;;;;;;;18.50;99.90;;;;;;5077401;28;19904;-81
2022/04/25 07:53:41;;;;;;;;;;;18.90;98.80;;;;;;5077506;28;20257;-80
2022/04/25 07:56:07;;;;;;;;;;;18.90;96.40;;;;;;5077470;28;20013;-81
2022/04/25 07:58:34;;;;;;;;;;;18.80;95.80;;;;;;5077296;28;20380;-81
2022/04/25 08:01:00;;;;;;;;;;;19.30;93.80;;;;;;5077203;28;20276;-79
2022/04/25 08:03:26;;;;;;;;;;;19.60;94.30;;;;;;5077079;28;19905;-80
2022/04/25 08:05:51;;;;;;;;;;;20.40;91.90;;;;;;5059474;28;19904;-80
2022/04/25 08:08:17;;;;;;;;;;;20.70;90.40;;;;;;5059008;28;19909;-79
2022/04/25 08:10:42;;;;;;;;;;;21.10;88.10;;;;;;5077352;28;19904;-79
2022/04/25 08:18:36;;;;;;;;;;;22.70;78.20;;;;;;5076585;28;20023;-80
2022/04/25 08:21:02;;;;;;;;;;;23.20;75.00;;;;;;5076794;28;19944;-78
2022/04/25 08:23:27;;;;;;;;;;;23.50;73.00;;;;;;5076762;28;19916;-80
2022/04/25 08:25:53;;;;;;;;;;;23.90;69.20;;;;;;5076641;28;19962;-81
2022/04/25 08:28:19;;;;;;;;;;;24.60;66.50;;;;;;5076692;28;20343;-80
2022/04/25 08:30:45;;;;;;;;;;;25.10;65.50;;;;;;5076663;28;19910;-81
2022/04/25 08:33:12;;;;;;;;;;;25.30;63.70;;;;;;5076801;28;19905;-79
2022/04/25 08:35:38;;;;;;;;;;;25.60;61.60;;;;;;5076540;28;19916;-80
2022/04/25 08:38:04;;;;;;;;;;;25.80;61.20;;;;;;5074950;28;19919;-79
2022/04/25 08:40:29;;;;;;;;;;;26.70;59.70;;;;;;5075479;28;19999;-79
2022/04/25 08:42:57;;;;;;;;;;;27.70;56.50;;;;;;5075388;28;20418;-80
2022/04/25 08:45:23;;;;;;;;;;;28.00;55.30;;;;;;5075165;28;19911;-81
2022/04/25 08:47:55;;;;;;;;;;;28.10;54.50;;;;;;5075487;28;19908;-81
2022/04/25 08:50:22;;;;;;;;;;;28.50;53.00;;;;;;5075044;28;19951;-80
2022/04/25 08:52:48;;;;;;;;;;;28.50;52.00;;;;;;5074624;28;20368;-81
2022/04/25 08:55:14;;;;;;;;;;;29.00;50.80;;;;;;5074973;28;19920;-81
2022/04/25 08:57:41;;;;;;;;;;;29.20;49.30;;;;;;5074995;28;19904;-81
2022/04/25 09:00:07;;;;;;;;;;;29.40;49.70;;;;;;5074894;28;19904;-80
2022/04/25 09:02:34;;;;;;;;;;;29.90;49.10;;;;;;5075278;28;19961;-81
2022/04/25 09:05:00;;;;;;;;;;;29.70;48.10;;;;;;5074776;28;19927;-81
2022/04/25 09:07:26;;;;;;;;;;;30.30;47.80;;;;;;5074884;28;20364;-81
2022/04/25 09:09:52;;;;;;;;;;;30.60;46.60;;;;;;5074752;28;19908;-83
2022/04/25 09:12:18;;;;;;;;;;;30.70;46.80;;;;;;5075240;28;19947;-80
2022/04/25 09:14:44;;;;;;;;;;;31.00;45.50;;;;;;5074756;28;19963;-82
2022/04/25 09:17:10;;;;;;;;;;;31.70;44.80;;;;;;5074995;28;19904;-82
2022/04/25 09:19:37;;;;;;;;;;;32.20;43.90;;;;;;5074726;28;20375;-81
2022/04/25 09:22:03;;;;;;;;;;;32.60;44.20;;;;;;5074645;28;19905;-81
2022/04/25 09:24:31;;;;;;;;;;;32.30;42.90;;;;;;5074561;28;19911;-81
2022/04/25 09:27:19;;;;;;;;;;;32.70;42.80;;;;;;5074864;28;19905;-82
2022/04/25 09:29:48;;;;;;;;;;;32.60;41.20;;;;;;5056516;28;19911;-82
2022/04/25 09:32:16;;;;;;;;;;;32.00;40.80;;;;;;5075001;28;19912;-83
2022/04/25 09:35:00;;;;;;;;;;;33.10;41.30;;;;;;5056388;28;19909;-82
2022/04/25 09:37:42;;;;;;;;;;;33.30;40.60;;;;;;5049596;28;294111;-80
2022/04/25 09:40:08;;;;;;;;;;;33.60;40.30;;;;;;5075016;28;19966;-80
2022/04/25 09:42:34;;;;;;;;;;;34.90;40.30;;;;;;5075306;28;19904;-83
2022/04/25 09:45:00;;;;;;;;;;;35.90;38.90;;;;;;5075458;28;19995;-81
2022/04/25 09:47:29;;;;;;;;;;;36.10;37.60;;;;;;5075189;28;19999;-82
2022/04/25 09:50:14;;;;;;;;;;;38.10;36.70;;;;;;5075158;28;19905;-82
2022/04/25 09:52:57;;;;;;;;;;;39.80;35.80;;;;;;5075143;28;19911;-82
2022/04/25 09:55:24;;;;;;;;;;;40.20;33.40;;;;;;5074971;28;20002;-81
2022/04/25 09:57:50;;;;;;;;;;;40.00;33.10;;;;;;5075141;28;19911;-82
2022/04/25 10:00:33;;;;;;;;;;;40.70;33.40;;;;;;5074921;28;19904;-82
2022/04/25 10:03:01;;;;;;;;;;;41.10;32.20;;;;;;5075266;28;19908;-82
2022/04/25 10:05:37;;;;;;;;;;;41.20;32.40;;;;;;5074170;28;19905;-82
2022/04/25 10:08:04;;;;;;;;;;;41.80;32.30;;;;;;5074872;28;20372;-82
2022/04/25 10:10:30;;;;;;;;;;;42.60;32.10;;;;;;5074639;28;19943;-83
2022/04/25 10:12:56;;;;;;;;;;;43.30;31.10;;;;;;5075049;28;20258;-82
2022/04/25 10:15:22;;;;;;;;;;;43.30;30.50;;;;;;5074581;28;19908;-82
2022/04/25 10:17:48;;;;;;;;;;;44.10;30.40;;;;;;5074598;28;19908;-82
2022/04/25 10:20:14;;;;;;;;;;;42.90;30.00;;;;;;5074662;28;19967;-80
2022/04/25 10:22:40;;;;;;;;;;;43.90;30.00;;;;;;5074516;28;19916;-82
2022/04/25 10:25:06;;;;;;;;;;;43.80;30.20;;;;;;5074870;28;19905;-82
2022/04/25 10:27:34;;;;;;;;;;;42.80;29.80;;;;;;5074597;28;19908;-82
2022/04/25 10:30:02;;;;;;;;;;;42.00;29.90;;;;;;5074384;28;19911;-81
2022/04/25 10:32:27;;;;;;;;;;;41.10;30.30;;;;;;5074436;28;19919;-82
2022/04/25 10:34:59;;;;;;;;;;;41.30;30.00;;;;;;5074725;28;19905;-82
2022/04/25 10:37:39;;;;;;;;;;;39.70;30.40;;;;;;5074173;28;19917;-83
2022/04/25 10:40:06;;;;;;;;;;;40.80;30.20;;;;;;5074747;28;19908;-82
2022/04/25 10:45:16;;;;;;;;;;;43.30;30.00;;;;;;5074028;28;19915;-79
2022/04/25 10:47:57;;;;;;;;;;;44.70;30.00;;;;;;5074088;28;19904;-80
2022/04/25 10:50:23;;;;;;;;;;;46.20;29.80;;;;;;5074174;28;19927;-80
2022/04/25 10:52:54;;;;;;;;;;;45.10;29.10;;;;;;5073992;28;20372;-79
2022/04/25 10:55:33;;;;;;;;;;;46.00;29.40;;;;;;5073987;28;20299;-79
2022/04/25 10:58:02;;;;;;;;;;;45.10;28.70;;;;;;5074336;28;19904;-80
2022/04/25 11:00:37;;;;;;;;;;;42.70;28.70;;;;;;5073997;28;19908;-80
2022/04/25 11:03:03;;;;;;;;;;;41.50;29.90;;;;;;5073825;28;19954;-80
2022/04/25 11:05:29;;;;;;;;;;;42.60;30.00;;;;;;5073770;28;19909;-81
2022/04/25 11:08:14;;;;;;;;;;;42.60;28.90;;;;;;5073787;28;19904;-80
2022/04/25 11:10:42;;;;;;;;;;;43.30;29.50;;;;;;5073575;28;19904;-79
2022/04/25 11:13:08;;;;;;;;;;;44.20;29.50;;;;;;5073752;28;19908;-79
2022/04/25 11:15:44;;;;;;;;;;;43.20;29.30;;;;;;5073622;28;19911;-79
2022/04/25 11:18:34;;;;;;;;;;;42.90;29.10;;;;;;5073880;28;19911;-80
2022/04/25 11:21:04;;;;;;;;;;;43.90;29.40;;;;;;5073753;28;19904;-80
2022/04/25 11:23:31;;;;;;;;;;;43.30;28.80;;;;;;5073618;28;19947;-79
2022/04/25 11:25:57;;;;;;;;;;;43.10;29.50;;;;;;5073795;28;19908;-80
2022/04/25 11:28:23;;;;;;;;;;;41.70;29.40;;;;;;5073930;28;20489;-79
2022/04/25 11:31:07;;;;;;;;;;;42.80;29.70;;;;;;5073524;28;19908;-78
2022/04/25 11:33:45;;;;;;;;;;;41.80;29.40;;;;;;5073537;28;19904;-80
2022/04/25 11:36:11;;;;;;;;;;;39.80;29.80;;;;;;5073315;28;19981;-80
2022/04/25 11:41:29;;;;;;;;;;;42.80;29.60;;;;;;5073711;28;19915;-78
2022/04/25 11:43:54;;;;;;;;;;;44.20;30.00;;;;;;5073371;28;19939;-78
2022/04/25 11:46:20;;;;;;;;;;;44.60;28.80;;;;;;5073421;28;19948;-78
2022/04/25 11:48:49;;;;;;;;;;;43.90;28.40;;;;;;5073544;28;20368;-80
2022/04/25 11:51:21;;;;;;;;;;;43.10;29.00;;;;;;5073372;28;19905;-78
2022/04/25 11:53:47;;;;;;;;;;;44.20;29.20;;;;;;5073545;28;20288;-78
2022/04/25 11:56:16;;;;;;;;;;;44.00;29.00;;;;;;5073323;28;19904;-80
2022/04/25 11:58:42;;;;;;;;;;;45.20;29.10;;;;;;5055383;28;19904;-80
2022/04/25 12:01:10;;;;;;;;;;;47.00;28.70;;;;;;5073256;28;20077;-79
2022/04/25 12:03:39;;;;;;;;;;;47.90;28.00;;;;;;5073192;28;19911;-79
2022/04/25 12:06:11;;;;;;;;;;;47.50;27.80;;;;;;5073200;28;19908;-79
2022/04/25 12:16:49;;;;;;;;;;;43.80;28.90;;;;;;5073362;28;19950;-78
2022/04/25 12:19:14;;;;;;;;;;;45.60;28.20;;;;;;5073133;28;19904;-80
2022/04/25 12:21:47;;;;;;;;;;;46.50;28.00;;;;;;5073162;28;19905;-80
2022/04/25 12:24:17;;;;;;;;;;;47.70;27.60;;;;;;5073003;28;19908;-79
2022/04/25 12:26:43;;;;;;;;;;;48.10;27.10;;;;;;5073062;28;20284;-80
2022/04/25 12:29:10;;;;;;;;;;;49.30;27.30;;;;;;5075477;28;19910;-79
2022/04/25 12:31:37;;;;;;;;;;;49.60;26.90;;;;;;5076742;28;19904;-79
2022/04/25 12:34:07;;;;;;;;;;;48.50;26.70;;;;;;5058653;28;19905;-78
2022/04/25 12:36:32;;;;;;;;;;;48.00;27.10;;;;;;5076363;28;19925;-79
2022/04/25 12:38:58;;;;;;;;;;;48.80;27.20;;;;;;5076522;28;20318;-80
2022/04/25 12:41:26;;;;;;;;;;;50.10;26.60;;;;;;5076458;28;19911;-79
2022/04/25 12:43:54;;;;;;;;;;;51.80;26.90;;;;;;5076375;28;19911;-79
2022/04/25 12:46:39;;;;;;;;;;;49.00;26.40;;;;;;5076382;28;19940;-79
2022/04/25 12:49:10;;;;;;;;;;;49.70;27.20;;;;;;5058372;28;20352;-79
2022/04/25 12:51:37;;;;;;;;;;;50.00;26.80;;;;;;5076340;28;19991;-78
2022/04/25 12:54:04;;;;;;;;;;;51.20;26.90;;;;;;5076272;28;20368;-78
2022/04/25 12:56:32;;;;;;;;;;;49.50;25.80;;;;;;5076300;28;19904;-79
2022/04/25 12:58:58;;;;;;;;;;;50.60;26.50;;;;;;5076203;28;19916;-79
2022/04/25 13:01:29;;;;;;;;;;;50.70;26.60;;;;;;5076112;28;19911;-78
2022/04/25 13:04:04;;;;;;;;;;;51.50;26.50;;;;;;5076136;28;19908;-79
2022/04/25 13:06:30;;;;;;;;;;;51.00;26.20;;;;;;5076018;28;19987;-78
2022/04/25 13:08:56;;;;;;;;;;;43.00;26.00;;;;;;5076001;28;19997;-80
2022/04/25 13:11:22;;;;;;;;;;;37.30;28.00;;;;;;5076284;28;20272;-80
2022/04/25 13:13:50;;;;;;;;;;;36.80;30.40;;;;;;5075872;28;19944;-80
2022/04/25 13:16:16;;;;;;;;;;;42.90;28.70;;;;;;5057854;28;19905;-81
2022/04/25 13:18:42;;;;;;;;;;;46.40;27.20;;;;;;5075769;28;19969;-81
2022/04/25 13:21:10;;;;;;;;;;;45.60;25.50;;;;;;5075964;28;19915;-81
2022/04/25 13:23:36;;;;;;;;;;;39.50;27.00;;;;;;5075742;28;20334;-80
2022/04/25 13:26:02;;;;;;;;;;;41.70;28.20;;;;;;5075662;28;19905;-81
2022/04/25 13:28:28;;;;;;;;;;;42.50;26.80;;;;;;5075567;28;20003;-79
2022/04/25 13:30:55;;;;;;;;;;;45.50;27.40;;;;;;5075556;28;19950;-80
2022/04/25 13:33:20;;;;;;;;;;;43.10;27.70;;;;;;5075717;28;19905;-81
2022/04/25 13:35:46;;;;;;;;;;;44.10;27.50;;;;;;5075396;28;19904;-80
2022/04/25 13:38:13;;;;;;;;;;;45.80;26.60;;;;;;5075372;28;20038;-81
2022/04/25 13:40:39;;;;;;;;;;;46.80;26.50;;;;;;5074202;28;19904;-81
2022/04/25 13:43:07;;;;;;;;;;;46.00;26.10;;;;;;5075297;28;20257;-81
2022/04/25 13:45:33;;;;;;;;;;;45.30;27.00;;;;;;5075370;28;19908;-81
2022/04/25 13:47:58;;;;;;;;;;;42.70;26.80;;;;;;5075348;28;20359;-81
2022/04/25 13:50:24;;;;;;;;;;;41.40;26.70;;;;;;5075155;28;20376;-80
2022/04/25 13:52:50;;;;;;;;;;;39.00;27.90;;;;;;5075134;28;20334;-80
2022/04/25 13:55:16;;;;;;;;;;;37.70;28.10;;;;;;5075092;28;19904;-80
2022/04/25 13:57:41;;;;;;;;;;;39.50;28.20;;;;;;5075492;28;20398;-80
2022/04/25 14:00:07;;;;;;;;;;;40.70;27.80;;;;;;5075317;28;19999;-81
2022/04/25 14:05:17;;;;;;;;;;;39.90;27.30;;;;;;5074584;28;19923;-80
2022/04/25 14:07:42;;;;;;;;;;;38.90;27.40;;;;;;5075010;28;19905;-80
2022/04/25 14:10:08;;;;;;;;;;;37.30;29.30;;;;;;5074946;28;19954;-80
2022/04/25 14:12:34;;;;;;;;;;;35.00;29.30;;;;;;5074699;28;19998;-81
2022/04/25 14:15:00;;;;;;;;;;;32.40;31.60;;;;;;5074617;28;19904;-79
2022/04/25 14:17:26;;;;;;;;;;;33.00;31.40;;;;;;5074619;28;19905;-80
2022/04/25 14:19:51;;;;;;;;;;;35.20;30.20;;;;;;5074757;28;19905;-81
2022/04/25 14:22:17;;;;;;;;;;;34.70;29.90;;;;;;5056584;28;19909;-81
2022/04/25 14:24:43;;;;;;;;;;;32.60;31.90;;;;;;5074743;28;20379;-79
2022/04/25 14:27:09;;;;;;;;;;;31.90;30.10;;;;;;5056511;28;19946;-80
2022/04/25 14:29:34;;;;;;;;;;;32.10;30.00;;;;;;5074393;28;20403;-80
2022/04/25 14:32:00;;;;;;;;;;;32.60;30.50;;;;;;5074535;28;19904;-78
2022/04/25 14:34:25;;;;;;;;;;;33.00;31.00;;;;;;5074908;28;19991;-80
2022/04/25 14:36:51;;;;;;;;;;;32.80;31.20;;;;;;5074050;28;19940;-81
2022/04/25 14:39:16;;;;;;;;;;;33.20;31.10;;;;;;5074200;28;19904;-78
2022/04/25 14:41:42;;;;;;;;;;;32.90;30.40;;;;;;5074047;28;19966;-79
2022/04/25 14:44:08;;;;;;;;;;;31.60;30.60;;;;;;5074058;28;19912;-79
2022/04/25 14:46:33;;;;;;;;;;;29.90;32.40;;;;;;5074245;28;19904;-80
2022/04/25 14:48:59;;;;;;;;;;;29.90;33.30;;;;;;5074278;28;20382;-79
2022/04/25 14:54:21;;;;;;;;;;;29.80;33.60;;;;;;5073716;28;19912;-78
2022/04/25 14:56:50;;;;;;;;;;;30.90;32.70;;;;;;5074157;28;19949;-80
2022/04/25 14:59:15;;;;;;;;;;;31.60;32.40;;;;;;5073850;28;19904;-79
2022/04/25 15:01:41;;;;;;;;;;;32.00;32.00;;;;;;5073823;28;20273;-79